National Weather Service United States Department of Commerce
News Headlines
Click Here for Latest Airport Weather Warnings
 
Latest Huntsville TAF


000
FTUS44 KHUN 191720
TAFHSV
TAF
KHSV 191720Z 1918/2018 33008KT P6SM SCT040 SCT250
FM200100 VRB04KT P6SM SCT150 BKN250
FM201600 27006KT P6SM SCT050 SCT090=

Latest Muscle Shoals TAF


000
FTUS44 KHUN 191720
TAFMSL
TAF
KMSL 191720Z 1918/2018 30008KT P6SM SCT050 SCT250
FM200100 VRB02KT P6SM SCT150 BKN200
FM201700 26006KT P6SM SCT050 BKN090=

 

Back to Main Huntsville Weather Forecast Office Page